sensor_id;sensor_type;location;lat;lon;timestamp;P1;durP1;ratioP1;P2;durP2;ratioP2
14348;SDS011;7258;50.376;8.742;2022-08-04T00:02:08;4.72;;;1.90;;
14348;SDS011;7258;50.376;8.742;2022-08-04T00:04:16;3.22;;;2.65;;
14348;SDS011;7258;50.376;8.742;2022-08-04T00:06:23;2.50;;;2.25;;
14348;SDS011;7258;50.376;8.742;2022-08-04T00:08:40;2.40;;;2.20;;
14348;SDS011;7258;50.376;8.742;2022-08-04T00:10:48;3.38;;;2.13;;
14348;SDS011;7258;50.376;8.742;2022-08-04T00:12:54;4.43;;;2.08;;
14348;SDS011;7258;50.376;8.742;2022-08-04T00:15:01;2.78;;;1.90;;
14348;SDS011;7258;50.376;8.742;2022-08-04T00:17:07;2.53;;;2.17;;
14348;SDS011;7258;50.376;8.742;2022-08-04T00:19:11;3.08;;;2.20;;
14348;SDS011;7258;50.376;8.742;2022-08-04T00:21:18;2.20;;;2.10;;
14348;SDS011;7258;50.376;8.742;2022-08-04T00:23:25;2.85;;;2.28;;
14348;SDS011;7258;50.376;8.742;2022-08-04T00:25:50;2.45;;;2.00;;
14348;SDS011;7258;50.376;8.742;2022-08-04T00:27:53;4.35;;;2.40;;
14348;SDS011;7258;50.376;8.742;2022-08-04T00:29:57;3.70;;;2.10;;
14348;SDS011;7258;50.376;8.742;2022-08-04T00:32:00;2.97;;;2.20;;
14348;SDS011;7258;50.376;8.742;2022-08-04T00:34:06;2.70;;;2.08;;
14348;SDS011;7258;50.376;8.742;2022-08-04T00:36:11;2.40;;;2.05;;
14348;SDS011;7258;50.376;8.742;2022-08-04T00:38:14;2.60;;;2.35;;
14348;SDS011;7258;50.376;8.742;2022-08-04T00:40:22;3.45;;;2.20;;
14348;SDS011;7258;50.376;8.742;2022-08-04T00:42:33;3.25;;;2.15;;
14348;SDS011;7258;50.376;8.742;2022-08-04T00:45:04;2.55;;;2.35;;
14348;SDS011;7258;50.376;8.742;2022-08-04T00:47:23;3.45;;;2.20;;
14348;SDS011;7258;50.376;8.742;2022-08-04T00:49:51;2.88;;;2.60;;
14348;SDS011;7258;50.376;8.742;2022-08-04T00:52:12;2.05;;;1.92;;
14348;SDS011;7258;50.376;8.742;2022-08-04T00:54:36;2.40;;;2.20;;
14348;SDS011;7258;50.376;8.742;2022-08-04T00:56:56;4.55;;;2.20;;
14348;SDS011;7258;50.376;8.742;2022-08-04T00:59:36;2.65;;;2.00;;
14348;SDS011;7258;50.376;8.742;2022-08-04T01:01:57;2.40;;;2.20;;
14348;SDS011;7258;50.376;8.742;2022-08-04T01:04:03;3.22;;;2.20;;
14348;SDS011;7258;50.376;8.742;2022-08-04T01:06:27;2.20;;;2.10;;
14348;SDS011;7258;50.376;8.742;2022-08-04T01:08:40;2.42;;;2.22;;
14348;SDS011;7258;50.376;8.742;2022-08-04T01:10:53;2.50;;;2.30;;
14348;SDS011;7258;50.376;8.742;2022-08-04T01:13:08;2.50;;;2.30;;
14348;SDS011;7258;50.376;8.742;2022-08-04T01:15:24;4.28;;;2.25;;
14348;SDS011;7258;50.376;8.742;2022-08-04T01:17:58;2.75;;;2.20;;
14348;SDS011;7258;50.376;8.742;2022-08-04T01:20:06;2.55;;;2.10;;
14348;SDS011;7258;50.376;8.742;2022-08-04T01:22:19;2.55;;;2.22;;
14348;SDS011;7258;50.376;8.742;2022-08-04T01:27:05;2.50;;;2.03;;
14348;SDS011;7258;50.376;8.742;2022-08-04T01:29:12;2.60;;;2.40;;
14348;SDS011;7258;50.376;8.742;2022-08-04T01:31:18;8.60;;;2.63;;
14348;SDS011;7258;50.376;8.742;2022-08-04T01:33:27;2.35;;;2.15;;
14348;SDS011;7258;50.376;8.742;2022-08-04T01:35:52;4.28;;;2.50;;
14348;SDS011;7258;50.376;8.742;2022-08-04T01:37:58;4.25;;;2.30;;
14348;SDS011;7258;50.376;8.742;2022-08-04T01:40:21;3.55;;;2.22;;
14348;SDS011;7258;50.376;8.742;2022-08-04T01:42:27;4.13;;;2.30;;
14348;SDS011;7258;50.376;8.742;2022-08-04T01:44:35;2.63;;;2.40;;
14348;SDS011;7258;50.376;8.742;2022-08-04T01:46:40;4.72;;;2.38;;
14348;SDS011;7258;50.376;8.742;2022-08-04T01:48:44;3.28;;;2.30;;
14348;SDS011;7258;50.376;8.742;2022-08-04T01:50:48;2.45;;;2.03;;
14348;SDS011;7258;50.376;8.742;2022-08-04T01:52:54;2.25;;;2.10;;
14348;SDS011;7258;50.376;8.742;2022-08-04T01:54:57;4.50;;;2.35;;
14348;SDS011;7258;50.376;8.742;2022-08-04T01:57:03;2.30;;;2.20;;
14348;SDS011;7258;50.376;8.742;2022-08-04T01:59:27;3.70;;;2.47;;
14348;SDS011;7258;50.376;8.742;2022-08-04T02:01:35;3.40;;;2.33;;
14348;SDS011;7258;50.376;8.742;2022-08-04T02:03:39;2.30;;;2.20;;
14348;SDS011;7258;50.376;8.742;2022-08-04T02:06:21;3.60;;;2.38;;
14348;SDS011;7258;50.376;8.742;2022-08-04T02:08:32;2.83;;;2.33;;
14348;SDS011;7258;50.376;8.742;2022-08-04T02:10:46;4.15;;;2.45;;
14348;SDS011;7258;50.376;8.742;2022-08-04T02:13:03;4.10;;;2.45;;
14348;SDS011;7258;50.376;8.742;2022-08-04T02:15:17;2.40;;;2.20;;
14348;SDS011;7258;50.376;8.742;2022-08-04T02:17:30;2.67;;;2.20;;
14348;SDS011;7258;50.376;8.742;2022-08-04T02:19:40;3.33;;;2.40;;
14348;SDS011;7258;50.376;8.742;2022-08-04T02:21:54;2.97;;;2.30;;
14348;SDS011;7258;50.376;8.742;2022-08-04T02:24:00;2.50;;;2.30;;
14348;SDS011;7258;50.376;8.742;2022-08-04T02:26:10;3.15;;;2.20;;
14348;SDS011;7258;50.376;8.742;2022-08-04T02:28:25;2.30;;;2.20;;
14348;SDS011;7258;50.376;8.742;2022-08-04T02:30:37;2.58;;;2.35;;
14348;SDS011;7258;50.376;8.742;2022-08-04T02:32:48;2.90;;;2.70;;
14348;SDS011;7258;50.376;8.742;2022-08-04T02:34:56;5.50;;;2.20;;
14348;SDS011;7258;50.376;8.742;2022-08-04T02:37:05;2.88;;;2.42;;
14348;SDS011;7258;50.376;8.742;2022-08-04T02:39:12;2.97;;;2.30;;
14348;SDS011;7258;50.376;8.742;2022-08-04T02:41:21;6.60;;;2.70;;
14348;SDS011;7258;50.376;8.742;2022-08-04T02:43:25;3.05;;;2.47;;
14348;SDS011;7258;50.376;8.742;2022-08-04T02:45:50;6.07;;;2.60;;
14348;SDS011;7258;50.376;8.742;2022-08-04T02:47:59;3.63;;;2.30;;
14348;SDS011;7258;50.376;8.742;2022-08-04T02:50:24;5.38;;;2.60;;
14348;SDS011;7258;50.376;8.742;2022-08-04T02:52:30;3.00;;;2.70;;
14348;SDS011;7258;50.376;8.742;2022-08-04T02:54:37;6.47;;;2.60;;
14348;SDS011;7258;50.376;8.742;2022-08-04T02:56:41;2.53;;;2.38;;
14348;SDS011;7258;50.376;8.742;2022-08-04T02:58:51;3.00;;;2.30;;
14348;SDS011;7258;50.376;8.742;2022-08-04T03:01:01;4.38;;;2.75;;
14348;SDS011;7258;50.376;8.742;2022-08-04T03:03:09;2.60;;;2.40;;
14348;SDS011;7258;50.376;8.742;2022-08-04T03:05:23;3.13;;;2.58;;
14348;SDS011;7258;50.376;8.742;2022-08-04T03:07:42;2.80;;;2.60;;
14348;SDS011;7258;50.376;8.742;2022-08-04T03:10:16;2.85;;;2.65;;
14348;SDS011;7258;50.376;8.742;2022-08-04T03:15:53;2.60;;;2.40;;
14348;SDS011;7258;50.376;8.742;2022-08-04T03:18:11;2.70;;;2.50;;
14348;SDS011;7258;50.376;8.742;2022-08-04T03:20:51;2.55;;;2.35;;
14348;SDS011;7258;50.376;8.742;2022-08-04T03:26:00;6.13;;;2.50;;
14348;SDS011;7258;50.376;8.742;2022-08-04T03:28:31;2.65;;;2.45;;
14348;SDS011;7258;50.376;8.742;2022-08-04T03:30:55;4.50;;;2.83;;
14348;SDS011;7258;50.376;8.742;2022-08-04T03:33:23;2.97;;;2.60;;
14348;SDS011;7258;50.376;8.742;2022-08-04T03:35:48;4.57;;;2.58;;
14348;SDS011;7258;50.376;8.742;2022-08-04T03:38:12;2.75;;;2.55;;
14348;SDS011;7258;50.376;8.742;2022-08-04T03:40:33;2.92;;;2.67;;
14348;SDS011;7258;50.376;8.742;2022-08-04T03:42:55;4.45;;;2.30;;
14348;SDS011;7258;50.376;8.742;2022-08-04T03:51:12;4.72;;;2.70;;
14348;SDS011;7258;50.376;8.742;2022-08-04T03:53:43;3.00;;;2.75;;
14348;SDS011;7258;50.376;8.742;2022-08-04T03:56:05;3.63;;;2.40;;
14348;SDS011;7258;50.376;8.742;2022-08-04T03:58:38;2.83;;;2.63;;
14348;SDS011;7258;50.376;8.742;2022-08-04T04:00:56;2.80;;;2.60;;
14348;SDS011;7258;50.376;8.742;2022-08-04T04:03:17;3.15;;;2.85;;
14348;SDS011;7258;50.376;8.742;2022-08-04T04:05:56;3.50;;;2.67;;
14348;SDS011;7258;50.376;8.742;2022-08-04T04:11:04;3.05;;;2.85;;
14348;SDS011;7258;50.376;8.742;2022-08-04T04:14:01;3.40;;;2.90;;
14348;SDS011;7258;50.376;8.742;2022-08-04T04:16:31;3.60;;;2.53;;
14348;SDS011;7258;50.376;8.742;2022-08-04T04:18:55;3.45;;;2.88;;
14348;SDS011;7258;50.376;8.742;2022-08-04T04:21:24;3.95;;;2.95;;
14348;SDS011;7258;50.376;8.742;2022-08-04T04:23:31;2.80;;;2.60;;
14348;SDS011;7258;50.376;8.742;2022-08-04T04:25:57;5.10;;;3.00;;
14348;SDS011;7258;50.376;8.742;2022-08-04T04:28:23;3.50;;;2.65;;
14348;SDS011;7258;50.376;8.742;2022-08-04T04:30:49;4.78;;;3.25;;
14348;SDS011;7258;50.376;8.742;2022-08-04T04:33:05;3.67;;;3.20;;
14348;SDS011;7258;50.376;8.742;2022-08-04T04:35:30;4.63;;;2.92;;
14348;SDS011;7258;50.376;8.742;2022-08-04T04:37:42;3.53;;;3.22;;
14348;SDS011;7258;50.376;8.742;2022-08-04T04:40:02;4.60;;;3.00;;
14348;SDS011;7258;50.376;8.742;2022-08-04T04:42:27;3.78;;;2.65;;
14348;SDS011;7258;50.376;8.742;2022-08-04T04:44:47;3.22;;;2.42;;
14348;SDS011;7258;50.376;8.742;2022-08-04T04:47:13;2.60;;;2.40;;
14348;SDS011;7258;50.376;8.742;2022-08-04T04:49:45;3.90;;;3.00;;
14348;SDS011;7258;50.376;8.742;2022-08-04T04:51:54;2.95;;;2.70;;
14348;SDS011;7258;50.376;8.742;2022-08-04T04:54:07;4.28;;;2.90;;
14348;SDS011;7258;50.376;8.742;2022-08-04T04:56:16;2.70;;;2.50;;
14348;SDS011;7258;50.376;8.742;2022-08-04T04:58:25;4.13;;;2.90;;
14348;SDS011;7258;50.376;8.742;2022-08-04T05:00:33;2.83;;;2.60;;
14348;SDS011;7258;50.376;8.742;2022-08-04T05:02:59;2.55;;;2.35;;
14348;SDS011;7258;50.376;8.742;2022-08-04T05:10:50;3.70;;;2.80;;
14348;SDS011;7258;50.376;8.742;2022-08-04T05:13:09;4.90;;;2.78;;
14348;SDS011;7258;50.376;8.742;2022-08-04T05:15:45;4.60;;;2.72;;
14348;SDS011;7258;50.376;8.742;2022-08-04T05:17:51;2.80;;;2.42;;
14348;SDS011;7258;50.376;8.742;2022-08-04T05:19:58;3.90;;;2.60;;
14348;SDS011;7258;50.376;8.742;2022-08-04T05:22:06;3.88;;;2.53;;
14348;SDS011;7258;50.376;8.742;2022-08-04T05:24:16;3.30;;;3.00;;
14348;SDS011;7258;50.376;8.742;2022-08-04T05:26:24;2.80;;;2.60;;
14348;SDS011;7258;50.376;8.742;2022-08-04T05:28:33;3.00;;;2.70;;
14348;SDS011;7258;50.376;8.742;2022-08-04T05:30:41;2.97;;;2.70;;
14348;SDS011;7258;50.376;8.742;2022-08-04T05:32:52;6.05;;;3.10;;
14348;SDS011;7258;50.376;8.742;2022-08-04T05:35:02;4.63;;;2.80;;
14348;SDS011;7258;50.376;8.742;2022-08-04T05:37:07;3.33;;;2.75;;
14348;SDS011;7258;50.376;8.742;2022-08-04T05:39:14;2.70;;;2.50;;
14348;SDS011;7258;50.376;8.742;2022-08-04T05:41:20;3.08;;;2.88;;
14348;SDS011;7258;50.376;8.742;2022-08-04T05:43:34;6.20;;;2.60;;
14348;SDS011;7258;50.376;8.742;2022-08-04T05:45:38;5.45;;;2.58;;
14348;SDS011;7258;50.376;8.742;2022-08-04T05:47:42;3.13;;;2.65;;
14348;SDS011;7258;50.376;8.742;2022-08-04T05:49:46;6.40;;;2.63;;
14348;SDS011;7258;50.376;8.742;2022-08-04T05:52:02;3.95;;;2.58;;
14348;SDS011;7258;50.376;8.742;2022-08-04T05:54:07;7.18;;;3.22;;
14348;SDS011;7258;50.376;8.742;2022-08-04T05:56:12;2.67;;;2.47;;
14348;SDS011;7258;50.376;8.742;2022-08-04T05:58:16;6.22;;;2.85;;
14348;SDS011;7258;50.376;8.742;2022-08-04T06:00:21;4.28;;;2.40;;
14348;SDS011;7258;50.376;8.742;2022-08-04T06:02:41;4.28;;;2.90;;
14348;SDS011;7258;50.376;8.742;2022-08-04T06:04:47;3.75;;;2.38;;
14348;SDS011;7258;50.376;8.742;2022-08-04T06:06:52;4.95;;;2.70;;
14348;SDS011;7258;50.376;8.742;2022-08-04T06:08:56;3.55;;;2.70;;
14348;SDS011;7258;50.376;8.742;2022-08-04T06:11:01;4.55;;;2.78;;
14348;SDS011;7258;50.376;8.742;2022-08-04T06:13:09;8.43;;;2.97;;
14348;SDS011;7258;50.376;8.742;2022-08-04T06:15:36;4.13;;;3.00;;
14348;SDS011;7258;50.376;8.742;2022-08-04T06:17:47;6.00;;;2.80;;
14348;SDS011;7258;50.376;8.742;2022-08-04T06:20:11;4.10;;;2.83;;
14348;SDS011;7258;50.376;8.742;2022-08-04T06:22:23;3.25;;;2.90;;
14348;SDS011;7258;50.376;8.742;2022-08-04T06:24:28;4.07;;;2.78;;
14348;SDS011;7258;50.376;8.742;2022-08-04T06:26:33;4.55;;;2.60;;
14348;SDS011;7258;50.376;8.742;2022-08-04T06:28:38;6.63;;;2.80;;
14348;SDS011;7258;50.376;8.742;2022-08-04T06:30:45;5.97;;;2.60;;
14348;SDS011;7258;50.376;8.742;2022-08-04T06:32:50;5.07;;;3.00;;
14348;SDS011;7258;50.376;8.742;2022-08-04T06:35:05;3.17;;;2.88;;
14348;SDS011;7258;50.376;8.742;2022-08-04T06:37:10;5.03;;;2.88;;
14348;SDS011;7258;50.376;8.742;2022-08-04T06:39:33;4.75;;;2.70;;
14348;SDS011;7258;50.376;8.742;2022-08-04T06:41:38;3.88;;;2.95;;
14348;SDS011;7258;50.376;8.742;2022-08-04T06:44:02;2.53;;;2.33;;
14348;SDS011;7258;50.376;8.742;2022-08-04T06:46:09;6.63;;;3.53;;
14348;SDS011;7258;50.376;8.742;2022-08-04T06:48:13;5.32;;;2.80;;
14348;SDS011;7258;50.376;8.742;2022-08-04T06:50:18;2.88;;;2.60;;
14348;SDS011;7258;50.376;8.742;2022-08-04T06:52:42;5.65;;;2.80;;
14348;SDS011;7258;50.376;8.742;2022-08-04T06:54:47;6.72;;;2.63;;
14348;SDS011;7258;50.376;8.742;2022-08-04T06:56:51;5.13;;;2.67;;
14348;SDS011;7258;50.376;8.742;2022-08-04T06:58:58;4.82;;;2.70;;
14348;SDS011;7258;50.376;8.742;2022-08-04T07:01:01;3.60;;;2.85;;
14348;SDS011;7258;50.376;8.742;2022-08-04T07:03:07;6.07;;;2.53;;
14348;SDS011;7258;50.376;8.742;2022-08-04T07:05:10;2.88;;;2.55;;
14348;SDS011;7258;50.376;8.742;2022-08-04T07:07:13;5.70;;;2.55;;
14348;SDS011;7258;50.376;8.742;2022-08-04T07:09:16;4.82;;;2.42;;
14348;SDS011;7258;50.376;8.742;2022-08-04T07:11:20;2.65;;;2.30;;
14348;SDS011;7258;50.376;8.742;2022-08-04T07:13:23;7.82;;;2.80;;
14348;SDS011;7258;50.376;8.742;2022-08-04T07:15:27;3.28;;;2.70;;
14348;SDS011;7258;50.376;8.742;2022-08-04T07:17:31;3.90;;;2.30;;
14348;SDS011;7258;50.376;8.742;2022-08-04T07:19:37;4.22;;;2.40;;
14348;SDS011;7258;50.376;8.742;2022-08-04T07:21:40;4.25;;;2.30;;
14348;SDS011;7258;50.376;8.742;2022-08-04T07:24:03;5.75;;;2.47;;
14348;SDS011;7258;50.376;8.742;2022-08-04T07:26:06;7.03;;;2.50;;
14348;SDS011;7258;50.376;8.742;2022-08-04T07:28:13;3.75;;;2.40;;
14348;SDS011;7258;50.376;8.742;2022-08-04T07:30:16;6.22;;;2.80;;
14348;SDS011;7258;50.376;8.742;2022-08-04T07:32:25;3.13;;;2.50;;
14348;SDS011;7258;50.376;8.742;2022-08-04T07:34:29;7.28;;;2.25;;
14348;SDS011;7258;50.376;8.742;2022-08-04T07:36:36;5.00;;;2.28;;
14348;SDS011;7258;50.376;8.742;2022-08-04T07:38:51;5.18;;;2.55;;
14348;SDS011;7258;50.376;8.742;2022-08-04T07:40:55;3.97;;;2.53;;
14348;SDS011;7258;50.376;8.742;2022-08-04T07:42:58;6.28;;;2.20;;
14348;SDS011;7258;50.376;8.742;2022-08-04T07:45:01;4.63;;;2.53;;
14348;SDS011;7258;50.376;8.742;2022-08-04T07:47:05;4.60;;;2.20;;
14348;SDS011;7258;50.376;8.742;2022-08-04T07:49:09;3.67;;;2.38;;
14348;SDS011;7258;50.376;8.742;2022-08-04T07:51:33;4.50;;;2.60;;
14348;SDS011;7258;50.376;8.742;2022-08-04T07:53:38;7.65;;;3.22;;
14348;SDS011;7258;50.376;8.742;2022-08-04T07:55:56;3.35;;;2.40;;
14348;SDS011;7258;50.376;8.742;2022-08-04T07:57:59;5.75;;;2.60;;
14348;SDS011;7258;50.376;8.742;2022-08-04T08:00:03;2.63;;;2.42;;
14348;SDS011;7258;50.376;8.742;2022-08-04T08:02:06;5.13;;;2.30;;
14348;SDS011;7258;50.376;8.742;2022-08-04T08:04:10;3.10;;;2.28;;
14348;SDS011;7258;50.376;8.742;2022-08-04T08:06:13;3.45;;;2.08;;
14348;SDS011;7258;50.376;8.742;2022-08-04T08:08:36;3.05;;;2.28;;
14348;SDS011;7258;50.376;8.742;2022-08-04T08:10:40;3.60;;;2.40;;
14348;SDS011;7258;50.376;8.742;2022-08-04T08:12:49;5.13;;;2.30;;
14348;SDS011;7258;50.376;8.742;2022-08-04T08:14:52;5.43;;;2.38;;
14348;SDS011;7258;50.376;8.742;2022-08-04T08:16:57;5.93;;;2.70;;
14348;SDS011;7258;50.376;8.742;2022-08-04T08:19:01;6.72;;;2.50;;
14348;SDS011;7258;50.376;8.742;2022-08-04T08:21:06;7.10;;;2.30;;
14348;SDS011;7258;50.376;8.742;2022-08-04T08:23:09;4.65;;;2.50;;
14348;SDS011;7258;50.376;8.742;2022-08-04T08:25:12;3.47;;;2.20;;
14348;SDS011;7258;50.376;8.742;2022-08-04T08:27:16;5.15;;;2.60;;
14348;SDS011;7258;50.376;8.742;2022-08-04T08:29:20;5.28;;;2.53;;
14348;SDS011;7258;50.376;8.742;2022-08-04T08:31:24;4.88;;;2.40;;
14348;SDS011;7258;50.376;8.742;2022-08-04T08:33:47;6.38;;;2.38;;
14348;SDS011;7258;50.376;8.742;2022-08-04T08:35:54;3.17;;;2.30;;
14348;SDS011;7258;50.376;8.742;2022-08-04T08:38:03;3.13;;;2.42;;
14348;SDS011;7258;50.376;8.742;2022-08-04T08:40:18;7.35;;;2.33;;
14348;SDS011;7258;50.376;8.742;2022-08-04T08:42:50;7.15;;;2.17;;
14348;SDS011;7258;50.376;8.742;2022-08-04T08:45:30;8.02;;;2.33;;
14348;SDS011;7258;50.376;8.742;2022-08-04T08:47:51;3.95;;;2.38;;
14348;SDS011;7258;50.376;8.742;2022-08-04T08:50:23;3.67;;;2.50;;
14348;SDS011;7258;50.376;8.742;2022-08-04T08:52:56;2.42;;;2.20;;
14348;SDS011;7258;50.376;8.742;2022-08-04T08:55:15;2.90;;;2.65;;
14348;SDS011;7258;50.376;8.742;2022-08-04T08:57:40;3.75;;;2.05;;
14348;SDS011;7258;50.376;8.742;2022-08-04T09:00:04;7.32;;;2.50;;
14348;SDS011;7258;50.376;8.742;2022-08-04T09:02:18;3.78;;;2.25;;
14348;SDS011;7258;50.376;8.742;2022-08-04T09:07:20;12.00;;;2.67;;
14348;SDS011;7258;50.376;8.742;2022-08-04T09:09:51;3.35;;;2.25;;
14348;SDS011;7258;50.376;8.742;2022-08-04T09:12:05;7.15;;;2.13;;
14348;SDS011;7258;50.376;8.742;2022-08-04T09:14:16;5.32;;;2.50;;
14348;SDS011;7258;50.376;8.742;2022-08-04T09:16:27;3.05;;;2.20;;
14348;SDS011;7258;50.376;8.742;2022-08-04T09:18:40;2.60;;;1.88;;
14348;SDS011;7258;50.376;8.742;2022-08-04T09:20:47;3.75;;;2.03;;
14348;SDS011;7258;50.376;8.742;2022-08-04T09:22:59;5.93;;;2.30;;
14348;SDS011;7258;50.376;8.742;2022-08-04T09:25:10;6.50;;;2.40;;
14348;SDS011;7258;50.376;8.742;2022-08-04T09:27:25;2.20;;;1.90;;
14348;SDS011;7258;50.376;8.742;2022-08-04T09:29:42;2.22;;;1.90;;
14348;SDS011;7258;50.376;8.742;2022-08-04T09:31:54;4.93;;;2.08;;
14348;SDS011;7258;50.376;8.742;2022-08-04T09:34:09;3.85;;;2.00;;
14348;SDS011;7258;50.376;8.742;2022-08-04T09:36:19;3.35;;;2.00;;
14348;SDS011;7258;50.376;8.742;2022-08-04T09:38:34;3.15;;;1.95;;
14348;SDS011;7258;50.376;8.742;2022-08-04T09:40:54;2.97;;;2.13;;
14348;SDS011;7258;50.376;8.742;2022-08-04T09:43:08;2.42;;;2.03;;
14348;SDS011;7258;50.376;8.742;2022-08-04T09:45:23;1.88;;;1.77;;
14348;SDS011;7258;50.376;8.742;2022-08-04T09:47:48;2.45;;;1.90;;
14348;SDS011;7258;50.376;8.742;2022-08-04T09:49:57;3.60;;;1.98;;
14348;SDS011;7258;50.376;8.742;2022-08-04T09:52:06;2.72;;;1.70;;
14348;SDS011;7258;50.376;8.742;2022-08-04T09:54:19;2.47;;;1.98;;
14348;SDS011;7258;50.376;8.742;2022-08-04T09:56:34;2.55;;;1.85;;
14348;SDS011;7258;50.376;8.742;2022-08-04T09:58:46;2.40;;;2.00;;
14348;SDS011;7258;50.376;8.742;2022-08-04T10:00:56;3.80;;;1.70;;
14348;SDS011;7258;50.376;8.742;2022-08-04T10:03:03;2.55;;;1.67;;
14348;SDS011;7258;50.376;8.742;2022-08-04T10:05:10;6.28;;;1.90;;
14348;SDS011;7258;50.376;8.742;2022-08-04T10:07:18;3.40;;;1.60;;
14348;SDS011;7258;50.376;8.742;2022-08-04T10:10:00;2.10;;;1.90;;
14348;SDS011;7258;50.376;8.742;2022-08-04T10:12:15;3.00;;;1.90;;
14348;SDS011;7258;50.376;8.742;2022-08-04T10:14:36;5.07;;;2.15;;
14348;SDS011;7258;50.376;8.742;2022-08-04T10:16:45;3.45;;;2.03;;
14348;SDS011;7258;50.376;8.742;2022-08-04T10:19:04;2.80;;;1.88;;
14348;SDS011;7258;50.376;8.742;2022-08-04T10:21:18;4.63;;;1.92;;
14348;SDS011;7258;50.376;8.742;2022-08-04T10:23:37;2.10;;;1.85;;
14348;SDS011;7258;50.376;8.742;2022-08-04T10:26:05;3.70;;;1.73;;
14348;SDS011;7258;50.376;8.742;2022-08-04T10:28:21;4.50;;;2.08;;
14348;SDS011;7258;50.376;8.742;2022-08-04T10:30:25;5.50;;;1.90;;
14348;SDS011;7258;50.376;8.742;2022-08-04T10:32:32;5.05;;;2.10;;
14348;SDS011;7258;50.376;8.742;2022-08-04T10:34:47;2.15;;;1.80;;
14348;SDS011;7258;50.376;8.742;2022-08-04T10:37:05;5.18;;;2.05;;
14348;SDS011;7258;50.376;8.742;2022-08-04T10:39:22;3.95;;;2.10;;
14348;SDS011;7258;50.376;8.742;2022-08-04T10:41:46;4.30;;;2.40;;
14348;SDS011;7258;50.376;8.742;2022-08-04T10:44:02;4.70;;;2.15;;
14348;SDS011;7258;50.376;8.742;2022-08-04T10:46:16;4.93;;;1.98;;
14348;SDS011;7258;50.376;8.742;2022-08-04T10:48:25;3.10;;;2.10;;
14348;SDS011;7258;50.376;8.742;2022-08-04T10:50:37;3.50;;;2.22;;
14348;SDS011;7258;50.376;8.742;2022-08-04T10:52:47;4.28;;;1.88;;
14348;SDS011;7258;50.376;8.742;2022-08-04T10:54:59;7.05;;;2.40;;
14348;SDS011;7258;50.376;8.742;2022-08-04T10:57:09;6.80;;;2.28;;
14348;SDS011;7258;50.376;8.742;2022-08-04T10:59:17;3.90;;;1.88;;
14348;SDS011;7258;50.376;8.742;2022-08-04T11:01:28;6.15;;;2.55;;
14348;SDS011;7258;50.376;8.742;2022-08-04T11:03:55;3.20;;;2.60;;
14348;SDS011;7258;50.376;8.742;2022-08-04T11:06:04;2.97;;;2.22;;
14348;SDS011;7258;50.376;8.742;2022-08-04T11:08:08;2.95;;;2.00;;
14348;SDS011;7258;50.376;8.742;2022-08-04T11:10:21;4.32;;;2.20;;
14348;SDS011;7258;50.376;8.742;2022-08-04T11:12:26;3.15;;;2.47;;
14348;SDS011;7258;50.376;8.742;2022-08-04T11:14:32;3.03;;;2.35;;
14348;SDS011;7258;50.376;8.742;2022-08-04T11:16:43;5.18;;;2.20;;
14348;SDS011;7258;50.376;8.742;2022-08-04T11:18:57;2.28;;;2.08;;
14348;SDS011;7258;50.376;8.742;2022-08-04T11:21:11;4.95;;;2.20;;
14348;SDS011;7258;50.376;8.742;2022-08-04T11:23:18;5.57;;;2.22;;
14348;SDS011;7258;50.376;8.742;2022-08-04T11:25:29;2.40;;;2.20;;
14348;SDS011;7258;50.376;8.742;2022-08-04T11:27:39;3.13;;;2.30;;
14348;SDS011;7258;50.376;8.742;2022-08-04T11:29:54;4.38;;;2.20;;
14348;SDS011;7258;50.376;8.742;2022-08-04T11:32:03;2.80;;;2.28;;
14348;SDS011;7258;50.376;8.742;2022-08-04T11:34:13;3.83;;;2.10;;
14348;SDS011;7258;50.376;8.742;2022-08-04T11:36:24;2.90;;;2.63;;
14348;SDS011;7258;50.376;8.742;2022-08-04T11:38:36;4.10;;;2.63;;
14348;SDS011;7258;50.376;8.742;2022-08-04T11:40:53;3.58;;;2.17;;
14348;SDS011;7258;50.376;8.742;2022-08-04T11:43:04;2.78;;;2.38;;
14348;SDS011;7258;50.376;8.742;2022-08-04T11:45:12;2.50;;;2.30;;
14348;SDS011;7258;50.376;8.742;2022-08-04T11:47:24;3.58;;;2.50;;
14348;SDS011;7258;50.376;8.742;2022-08-04T11:49:32;4.53;;;2.42;;
14348;SDS011;7258;50.376;8.742;2022-08-04T11:51:59;3.17;;;2.20;;
14348;SDS011;7258;50.376;8.742;2022-08-04T11:54:04;4.32;;;2.50;;
14348;SDS011;7258;50.376;8.742;2022-08-04T11:56:08;4.25;;;2.45;;
14348;SDS011;7258;50.376;8.742;2022-08-04T11:58:35;3.88;;;2.38;;
14348;SDS011;7258;50.376;8.742;2022-08-04T12:00:40;4.43;;;2.10;;
14348;SDS011;7258;50.376;8.742;2022-08-04T12:02:58;2.95;;;2.10;;
14348;SDS011;7258;50.376;8.742;2022-08-04T12:05:13;4.45;;;2.00;;
14348;SDS011;7258;50.376;8.742;2022-08-04T12:07:48;3.67;;;2.17;;
14348;SDS011;7258;50.376;8.742;2022-08-04T12:10:03;3.35;;;2.20;;
14348;SDS011;7258;50.376;8.742;2022-08-04T12:12:42;1.90;;;1.80;;
14348;SDS011;7258;50.376;8.742;2022-08-04T12:14:54;3.03;;;2.42;;
14348;SDS011;7258;50.376;8.742;2022-08-04T12:17:05;4.93;;;2.17;;
14348;SDS011;7258;50.376;8.742;2022-08-04T12:19:09;2.38;;;2.28;;
14348;SDS011;7258;50.376;8.742;2022-08-04T12:21:22;2.30;;;2.10;;
14348;SDS011;7258;50.376;8.742;2022-08-04T12:23:34;2.42;;;2.00;;
14348;SDS011;7258;50.376;8.742;2022-08-04T12:25:40;3.10;;;2.20;;
14348;SDS011;7258;50.376;8.742;2022-08-04T12:27:48;5.50;;;2.42;;
14348;SDS011;7258;50.376;8.742;2022-08-04T12:29:55;3.80;;;2.20;;
14348;SDS011;7258;50.376;8.742;2022-08-04T12:32:20;2.60;;;2.00;;
14348;SDS011;7258;50.376;8.742;2022-08-04T12:34:28;2.28;;;2.08;;
14348;SDS011;7258;50.376;8.742;2022-08-04T12:36:37;2.65;;;2.10;;
14348;SDS011;7258;50.376;8.742;2022-08-04T12:38:48;3.88;;;2.30;;
14348;SDS011;7258;50.376;8.742;2022-08-04T12:40:58;2.30;;;2.10;;
14348;SDS011;7258;50.376;8.742;2022-08-04T12:43:05;3.20;;;2.28;;
14348;SDS011;7258;50.376;8.742;2022-08-04T12:45:12;4.93;;;2.22;;
14348;SDS011;7258;50.376;8.742;2022-08-04T12:47:17;2.63;;;2.42;;
14348;SDS011;7258;50.376;8.742;2022-08-04T12:49:28;3.97;;;2.30;;
14348;SDS011;7258;50.376;8.742;2022-08-04T12:51:37;5.47;;;2.13;;
14348;SDS011;7258;50.376;8.742;2022-08-04T12:54:03;4.78;;;2.13;;
14348;SDS011;7258;50.376;8.742;2022-08-04T12:56:08;2.78;;;2.00;;
14348;SDS011;7258;50.376;8.742;2022-08-04T12:58:14;2.90;;;1.98;;
14348;SDS011;7258;50.376;8.742;2022-08-04T13:00:38;2.83;;;2.03;;
14348;SDS011;7258;50.376;8.742;2022-08-04T13:02:42;2.50;;;1.80;;
14348;SDS011;7258;50.376;8.742;2022-08-04T13:04:47;2.40;;;1.80;;
14348;SDS011;7258;50.376;8.742;2022-08-04T13:06:52;2.58;;;1.90;;
14348;SDS011;7258;50.376;8.742;2022-08-04T13:09:03;2.80;;;1.98;;
14348;SDS011;7258;50.376;8.742;2022-08-04T13:11:11;5.40;;;2.30;;
14348;SDS011;7258;50.376;8.742;2022-08-04T13:13:15;7.43;;;2.00;;
14348;SDS011;7258;50.376;8.742;2022-08-04T13:15:19;4.63;;;1.95;;
14348;SDS011;7258;50.376;8.742;2022-08-04T13:17:24;4.88;;;1.80;;
14348;SDS011;7258;50.376;8.742;2022-08-04T13:19:30;1.70;;;1.60;;
14348;SDS011;7258;50.376;8.742;2022-08-04T13:21:42;2.55;;;1.83;;
14348;SDS011;7258;50.376;8.742;2022-08-04T13:24:05;2.45;;;1.80;;
14348;SDS011;7258;50.376;8.742;2022-08-04T13:26:31;1.70;;;1.58;;
14348;SDS011;7258;50.376;8.742;2022-08-04T13:28:57;4.05;;;1.70;;
14348;SDS011;7258;50.376;8.742;2022-08-04T13:31:18;3.10;;;1.40;;
14348;SDS011;7258;50.376;8.742;2022-08-04T13:33:26;1.50;;;1.40;;
14348;SDS011;7258;50.376;8.742;2022-08-04T13:35:31;1.60;;;1.40;;
14348;SDS011;7258;50.376;8.742;2022-08-04T13:37:55;4.32;;;1.67;;
14348;SDS011;7258;50.376;8.742;2022-08-04T13:40:01;2.70;;;2.00;;
14348;SDS011;7258;50.376;8.742;2022-08-04T13:42:07;1.75;;;1.60;;
14348;SDS011;7258;50.376;8.742;2022-08-04T13:44:13;1.70;;;1.60;;
14348;SDS011;7258;50.376;8.742;2022-08-04T13:46:22;4.13;;;1.52;;
14348;SDS011;7258;50.376;8.742;2022-08-04T13:48:32;5.38;;;1.60;;
14348;SDS011;7258;50.376;8.742;2022-08-04T13:50:37;3.33;;;1.75;;
14348;SDS011;7258;50.376;8.742;2022-08-04T13:52:47;4.95;;;1.45;;
14348;SDS011;7258;50.376;8.742;2022-08-04T13:54:53;2.25;;;1.30;;
14348;SDS011;7258;50.376;8.742;2022-08-04T13:56:58;4.82;;;1.48;;
14348;SDS011;7258;50.376;8.742;2022-08-04T13:59:03;3.30;;;1.35;;